Time;durP1;ratioP1;P1;durP2;ratioP2;P2;SDS_P1;SDS_P2;PMS_P1;PMS_P2;Temp;Humidity;BMP_temperature;BMP_pressure;BME280_temperature;BME280_humidity;BME280_pressure;Samples;Min_cycle;Max_cycle;Signal;HPM_P1;HPM_P2
2024/03/21 00:02:39;;;;;;;41.58;27.85;;;;;;;;;;5135361;27;20064;-65
2024/03/21 00:05:06;;;;;;;42.40;28.92;;;;;;;;;;5134527;27;20026;-66
2024/03/21 00:07:38;;;;;;;42.80;29.23;;;;;;;;;;5153965;27;20159;-66
2024/03/21 00:10:04;;;;;;;41.53;28.50;;;;;;;;;;5154298;27;20057;-65
2024/03/21 00:12:34;;;;;;;42.10;28.20;;;;;;;;;;5135296;27;20026;-65
2024/03/21 00:15:00;;;;;;;37.58;28.42;;;;;;;;;;5134347;27;20033;-66
2024/03/21 00:17:26;;;;;;;42.40;29.85;;;;;;;;;;5151522;27;20035;-67
2024/03/21 00:19:52;;;;;;;48.05;29.65;;;;;;;;;;5134492;27;20018;-66
2024/03/21 00:22:18;;;;;;;44.88;29.00;;;;;;;;;;5134503;27;20099;-66
2024/03/21 00:24:44;;;;;;;40.22;28.63;;;;;;;;;;5153498;27;20399;-66
2024/03/21 00:27:10;;;;;;;44.15;29.83;;;;;;;;;;5153586;27;20029;-66
2024/03/21 00:29:36;;;;;;;38.15;26.85;;;;;;;;;;5138696;27;20030;-66
2024/03/21 00:32:02;;;;;;;38.20;26.98;;;;;;;;;;5158344;27;20106;-66
2024/03/21 00:34:28;;;;;;;37.08;27.65;;;;;;;;;;5158025;27;20059;-65
2024/03/21 00:36:57;;;;;;;44.15;27.20;;;;;;;;;;5157918;27;20057;-66
2024/03/21 00:39:23;;;;;;;40.72;28.88;;;;;;;;;;5157810;27;20110;-65
2024/03/21 00:41:49;;;;;;;37.40;26.80;;;;;;;;;;5157843;27;20506;-65
2024/03/21 00:44:15;;;;;;;41.08;28.70;;;;;;;;;;5157797;27;20022;-66
2024/03/21 00:46:42;;;;;;;39.30;25.65;;;;;;;;;;5157721;27;20045;-66
2024/03/21 00:49:09;;;;;;;37.60;26.25;;;;;;;;;;5157776;27;20375;-66
2024/03/21 00:51:35;;;;;;;44.38;29.10;;;;;;;;;;5138986;27;20038;-66
2024/03/21 00:54:01;;;;;;;39.53;28.60;;;;;;;;;;5157747;27;20019;-66
2024/03/21 00:56:27;;;;;;;43.40;28.67;;;;;;;;;;5157658;27;20399;-66
2024/03/21 00:58:58;;;;;;;43.42;29.90;;;;;;;;;;5157725;27;20050;-66
2024/03/21 01:01:24;;;;;;;38.10;27.65;;;;;;;;;;5157522;27;20023;-66
2024/03/21 01:03:50;;;;;;;41.20;29.45;;;;;;;;;;5138875;27;20117;-66
2024/03/21 01:06:16;;;;;;;38.42;28.52;;;;;;;;;;5157399;27;20115;-66
2024/03/21 01:08:42;;;;;;;40.50;28.15;;;;;;;;;;5157572;27;20371;-66
2024/03/21 01:11:09;;;;;;;41.90;28.83;;;;;;;;;;5157494;27;20023;-66
2024/03/21 01:13:35;;;;;;;46.00;29.58;;;;;;;;;;5157747;27;20035;-66
2024/03/21 01:16:03;;;;;;;37.10;26.75;;;;;;;;;;5157327;27;20031;-67
2024/03/21 01:18:35;;;;;;;41.67;28.27;;;;;;;;;;5157181;27;20497;-66
2024/03/21 01:21:05;;;;;;;40.05;27.70;;;;;;;;;;5157292;27;20129;-66
2024/03/21 01:23:31;;;;;;;40.80;27.77;;;;;;;;;;5157221;27;20042;-66
2024/03/21 01:25:57;;;;;;;44.30;28.85;;;;;;;;;;5157041;27;20556;-66
2024/03/21 01:28:23;;;;;;;43.60;28.88;;;;;;;;;;5157144;27;20010;-66
2024/03/21 01:30:49;;;;;;;42.90;28.75;;;;;;;;;;5138718;27;20071;-66
2024/03/21 01:33:15;;;;;;;42.20;28.00;;;;;;;;;;5157143;27;20019;-66
2024/03/21 01:35:41;;;;;;;39.17;28.05;;;;;;;;;;5156815;27;20034;-66
2024/03/21 01:38:08;;;;;;;43.08;28.67;;;;;;;;;;5156603;27;20071;-66
2024/03/21 01:40:36;;;;;;;42.78;28.80;;;;;;;;;;5156141;27;20035;-66
2024/03/21 01:43:02;;;;;;;43.63;29.23;;;;;;;;;;5156579;27;20117;-66
2024/03/21 01:45:28;;;;;;;47.63;28.98;;;;;;;;;;5156939;27;20101;-67
2024/03/21 01:47:58;;;;;;;41.65;29.05;;;;;;;;;;5138119;27;20037;-67
2024/03/21 01:50:24;;;;;;;44.97;29.92;;;;;;;;;;5156781;27;20033;-67
2024/03/21 01:52:50;;;;;;;46.95;31.23;;;;;;;;;;5156425;27;20046;-67
2024/03/21 01:55:16;;;;;;;40.97;29.73;;;;;;;;;;5156552;27;20030;-66
2024/03/21 01:57:43;;;;;;;43.30;29.02;;;;;;;;;;5156337;27;20039;-66
2024/03/21 02:00:09;;;;;;;44.33;28.83;;;;;;;;;;5156332;27;20025;-66
2024/03/21 02:02:35;;;;;;;42.08;27.95;;;;;;;;;;5156950;27;20445;-66
2024/03/21 02:05:10;;;;;;;38.70;27.63;;;;;;;;;;5155915;27;20019;-66
2024/03/21 02:07:36;;;;;;;44.60;29.50;;;;;;;;;;5155392;27;20030;-67
2024/03/21 02:10:03;;;;;;;41.25;28.73;;;;;;;;;;5155458;27;20030;-66
2024/03/21 02:12:46;;;;;;;39.47;27.85;;;;;;;;;;5155346;27;20022;-67
2024/03/21 02:15:12;;;;;;;43.80;29.02;;;;;;;;;;5155407;27;20388;-66
2024/03/21 02:17:40;;;;;;;42.58;27.65;;;;;;;;;;5154846;27;20134;-66
2024/03/21 02:20:07;;;;;;;53.63;29.10;;;;;;;;;;5154831;27;20023;-66
2024/03/21 02:22:36;;;;;;;41.42;27.38;;;;;;;;;;5154390;27;20155;-66
2024/03/21 02:25:04;;;;;;;44.00;27.92;;;;;;;;;;5154455;27;20130;-66
2024/03/21 02:27:31;;;;;;;41.65;28.08;;;;;;;;;;5136325;27;20030;-66
2024/03/21 02:29:57;;;;;;;41.42;27.98;;;;;;;;;;5155310;27;20025;-66
2024/03/21 02:32:23;;;;;;;41.22;28.55;;;;;;;;;;5136278;27;20027;-66
2024/03/21 02:34:49;;;;;;;45.33;29.00;;;;;;;;;;5154951;27;20389;-66
2024/03/21 02:37:15;;;;;;;42.95;28.58;;;;;;;;;;5154353;27;20074;-66
2024/03/21 02:39:41;;;;;;;42.63;29.15;;;;;;;;;;5155092;27;20042;-66
2024/03/21 02:42:08;;;;;;;39.65;29.20;;;;;;;;;;5154705;27;20027;-66
2024/03/21 02:44:34;;;;;;;44.17;29.60;;;;;;;;;;5154989;27;20030;-66
2024/03/21 02:47:00;;;;;;;44.92;29.63;;;;;;;;;;5154824;27;20067;-66
2024/03/21 02:49:26;;;;;;;43.53;28.90;;;;;;;;;;5154793;27;20552;-66
2024/03/21 02:51:54;;;;;;;44.72;27.90;;;;;;;;;;5154498;27;20030;-65
2024/03/21 02:54:20;;;;;;;42.33;29.17;;;;;;;;;;5134330;27;20015;-66
2024/03/21 02:56:46;;;;;;;46.63;29.65;;;;;;;;;;5134316;27;20035;-65
2024/03/21 02:59:12;;;;;;;41.72;29.85;;;;;;;;;;5115798;27;20315;-66
2024/03/21 03:01:38;;;;;;;42.80;28.92;;;;;;;;;;5134579;27;20027;-65
2024/03/21 03:04:04;;;;;;;46.22;29.52;;;;;;;;;;5134270;27;20019;-65
2024/03/21 03:06:32;;;;;;;42.65;29.63;;;;;;;;;;5137969;27;20590;-65
2024/03/21 03:08:58;;;;;;;39.65;28.15;;;;;;;;;;5154809;27;20105;-65
2024/03/21 03:11:24;;;;;;;42.05;29.95;;;;;;;;;;5155045;27;20019;-65
2024/03/21 03:13:50;;;;;;;41.88;28.77;;;;;;;;;;5155136;27;20034;-66
2024/03/21 03:16:16;;;;;;;46.03;30.58;;;;;;;;;;5135972;27;20046;-67
2024/03/21 03:18:42;;;;;;;47.20;31.75;;;;;;;;;;5154943;27;20345;-66
2024/03/21 03:21:08;;;;;;;45.40;31.75;;;;;;;;;;5154573;27;20026;-66
2024/03/21 03:23:35;;;;;;;44.50;30.83;;;;;;;;;;5132306;27;20054;-66
2024/03/21 03:26:01;;;;;;;45.83;29.95;;;;;;;;;;5134114;27;20023;-66
2024/03/21 03:28:27;;;;;;;49.08;31.67;;;;;;;;;;5133820;27;20435;-66
2024/03/21 03:30:53;;;;;;;46.28;32.38;;;;;;;;;;5133718;27;20050;-66
2024/03/21 03:36:05;;;;;;;48.88;32.42;;;;;;;;;;5101746;27;20163;-66
2024/03/21 03:38:31;;;;;;;46.30;31.80;;;;;;;;;;5133612;27;20495;-66
2024/03/21 03:40:57;;;;;;;44.55;31.17;;;;;;;;;;5133891;27;20020;-66
2024/03/21 03:43:23;;;;;;;44.90;28.77;;;;;;;;;;5133608;27;20023;-66
2024/03/21 03:45:49;;;;;;;44.03;30.67;;;;;;;;;;5132229;27;20114;-66
2024/03/21 03:48:15;;;;;;;48.42;31.83;;;;;;;;;;5133444;27;20080;-66
2024/03/21 03:50:41;;;;;;;48.53;32.45;;;;;;;;;;5133392;27;20422;-66
2024/03/21 03:53:07;;;;;;;48.10;32.85;;;;;;;;;;5133329;27;20106;-66
2024/03/21 03:55:33;;;;;;;44.03;31.33;;;;;;;;;;5133486;27;20034;-66
2024/03/21 03:57:59;;;;;;;45.58;31.70;;;;;;;;;;5131970;27;20062;-66
2024/03/21 04:00:25;;;;;;;42.85;30.08;;;;;;;;;;5132281;27;20027;-66
2024/03/21 04:02:52;;;;;;;46.63;31.17;;;;;;;;;;5132383;27;20042;-66
2024/03/21 04:05:18;;;;;;;45.90;31.42;;;;;;;;;;5133269;27;20026;-66
2024/03/21 04:07:45;;;;;;;46.42;31.52;;;;;;;;;;5133046;27;20025;-66
2024/03/21 04:10:11;;;;;;;46.95;31.55;;;;;;;;;;5133342;27;20027;-66
2024/03/21 04:12:38;;;;;;;42.22;29.80;;;;;;;;;;5131806;27;20050;-66
2024/03/21 04:15:04;;;;;;;47.33;31.75;;;;;;;;;;5133147;27;20019;-66
2024/03/21 04:17:30;;;;;;;45.53;30.60;;;;;;;;;;5133005;27;20533;-66
2024/03/21 04:19:56;;;;;;;43.05;30.90;;;;;;;;;;5133279;28;20054;-66
2024/03/21 04:22:22;;;;;;;42.30;30.60;;;;;;;;;;5132971;28;20027;-66
2024/03/21 04:24:48;;;;;;;45.53;31.63;;;;;;;;;;5151444;27;20042;-66
2024/03/21 04:27:14;;;;;;;49.28;31.42;;;;;;;;;;5134843;27;20073;-66
2024/03/21 04:29:40;;;;;;;45.78;31.90;;;;;;;;;;5153016;27;20015;-66
2024/03/21 04:32:09;;;;;;;46.25;30.85;;;;;;;;;;5134378;27;20046;-67
2024/03/21 04:34:35;;;;;;;43.75;30.67;;;;;;;;;;5152599;27;20014;-66
2024/03/21 04:37:01;;;;;;;50.13;32.60;;;;;;;;;;5152981;27;20118;-66
2024/03/21 04:39:27;;;;;;;47.75;32.53;;;;;;;;;;5152877;27;20452;-66
2024/03/21 04:41:53;;;;;;;51.20;32.75;;;;;;;;;;5134039;27;20135;-65
2024/03/21 04:44:20;;;;;;;46.28;30.70;;;;;;;;;;5153255;27;20472;-65
2024/03/21 04:46:46;;;;;;;43.83;30.85;;;;;;;;;;5135014;27;20019;-65
2024/03/21 04:49:12;;;;;;;45.08;31.98;;;;;;;;;;5133855;27;20034;-65
2024/03/21 04:51:38;;;;;;;45.03;30.60;;;;;;;;;;5132751;28;20019;-65
2024/03/21 04:54:04;;;;;;;48.08;31.48;;;;;;;;;;5115849;27;20011;-65
2024/03/21 04:56:30;;;;;;;45.35;31.05;;;;;;;;;;5153529;27;20086;-66
2024/03/21 04:58:56;;;;;;;39.95;27.77;;;;;;;;;;5153806;27;20023;-66
2024/03/21 05:01:22;;;;;;;46.08;29.38;;;;;;;;;;5153298;27;20031;-66
2024/03/21 05:03:48;;;;;;;44.45;30.75;;;;;;;;;;5153356;27;20025;-66
2024/03/21 05:06:14;;;;;;;41.25;30.85;;;;;;;;;;5134654;27;20333;-66
2024/03/21 05:08:40;;;;;;;44.35;30.38;;;;;;;;;;5153219;27;20054;-66
2024/03/21 05:11:06;;;;;;;42.70;30.60;;;;;;;;;;5153570;27;20023;-65
2024/03/21 05:13:32;;;;;;;44.13;29.88;;;;;;;;;;5153568;27;20015;-65
2024/03/21 05:15:58;;;;;;;41.53;29.05;;;;;;;;;;5156806;27;20026;-65
2024/03/21 05:18:24;;;;;;;42.00;28.85;;;;;;;;;;5157328;27;20357;-65
2024/03/21 05:20:50;;;;;;;41.95;28.88;;;;;;;;;;5157326;27;20110;-65
2024/03/21 05:23:16;;;;;;;39.13;28.45;;;;;;;;;;5156997;27;20042;-65
2024/03/21 05:25:42;;;;;;;43.45;30.70;;;;;;;;;;5157263;27;20037;-66
2024/03/21 05:28:08;;;;;;;44.00;30.88;;;;;;;;;;5138180;27;20018;-66
2024/03/21 05:30:34;;;;;;;43.75;31.27;;;;;;;;;;5157203;27;20087;-66
2024/03/21 05:33:08;;;;;;;46.13;30.42;;;;;;;;;;5156860;27;20387;-66
2024/03/21 05:35:34;;;;;;;49.00;30.38;;;;;;;;;;5157436;27;20034;-66
2024/03/21 05:38:00;;;;;;;50.72;31.30;;;;;;;;;;5156681;27;20047;-66
2024/03/21 05:40:26;;;;;;;41.67;31.13;;;;;;;;;;5156696;27;20023;-66
2024/03/21 05:42:52;;;;;;;49.25;30.85;;;;;;;;;;5156928;27;20034;-66
2024/03/21 05:45:18;;;;;;;44.10;31.80;;;;;;;;;;5156810;27;20493;-66
2024/03/21 05:47:44;;;;;;;44.13;29.38;;;;;;;;;;5156563;27;20110;-66
2024/03/21 05:50:10;;;;;;;50.70;33.25;;;;;;;;;;5156545;27;20034;-66
2024/03/21 05:52:36;;;;;;;47.17;33.85;;;;;;;;;;5155720;27;20026;-66
2024/03/21 05:55:02;;;;;;;49.58;33.22;;;;;;;;;;5155983;27;20048;-66
2024/03/21 05:57:28;;;;;;;54.40;35.67;;;;;;;;;;5137616;27;20054;-66
2024/03/21 05:59:54;;;;;;;51.95;34.72;;;;;;;;;;5156342;27;20386;-66
2024/03/21 06:02:21;;;;;;;57.25;36.90;;;;;;;;;;5156238;27;20047;-66
2024/03/21 06:04:47;;;;;;;52.13;34.22;;;;;;;;;;5156143;27;20532;-66
2024/03/21 06:07:13;;;;;;;54.25;36.35;;;;;;;;;;5156082;27;20023;-66
2024/03/21 06:09:45;;;;;;;53.08;34.90;;;;;;;;;;5156113;27;20030;-66
2024/03/21 06:12:11;;;;;;;52.35;35.30;;;;;;;;;;5156403;27;20057;-66
2024/03/21 06:14:37;;;;;;;54.03;35.72;;;;;;;;;;5156004;27;20467;-66
2024/03/21 06:17:03;;;;;;;52.15;34.90;;;;;;;;;;5155923;27;20059;-66
2024/03/21 06:19:29;;;;;;;58.80;35.90;;;;;;;;;;5155875;27;20330;-66
2024/03/21 06:21:56;;;;;;;59.78;38.33;;;;;;;;;;5155880;27;20027;-66
2024/03/21 06:24:22;;;;;;;54.83;36.03;;;;;;;;;;5155296;27;20051;-66
2024/03/21 06:26:48;;;;;;;56.50;37.85;;;;;;;;;;5155021;27;20026;-66
2024/03/21 06:29:14;;;;;;;58.83;39.53;;;;;;;;;;5137185;27;20071;-66
2024/03/21 06:31:40;;;;;;;57.25;38.67;;;;;;;;;;5155625;27;20015;-66
2024/03/21 06:34:07;;;;;;;64.68;40.88;;;;;;;;;;5155677;27;20094;-66
2024/03/21 06:36:33;;;;;;;69.20;42.35;;;;;;;;;;5155569;27;20026;-65
2024/03/21 06:38:59;;;;;;;64.88;42.60;;;;;;;;;;5155500;27;20019;-65
2024/03/21 06:41:44;;;;;;;61.65;41.58;;;;;;;;;;5155330;27;20033;-66
2024/03/21 06:44:10;;;;;;;66.68;41.05;;;;;;;;;;5155130;27;20144;-66
2024/03/21 06:46:38;;;;;;;71.72;42.28;;;;;;;;;;5155634;27;20409;-66
2024/03/21 06:49:04;;;;;;;66.13;42.45;;;;;;;;;;5126159;27;20025;-66
2024/03/21 06:51:30;;;;;;;64.40;42.95;;;;;;;;;;5135915;27;20367;-66
2024/03/21 06:53:56;;;;;;;66.85;41.13;;;;;;;;;;5152034;27;20023;-66
2024/03/21 06:56:22;;;;;;;64.22;42.38;;;;;;;;;;5142368;27;20031;-65
2024/03/21 06:58:49;;;;;;;64.50;41.33;;;;;;;;;;5145030;27;20027;-65
2024/03/21 07:01:18;;;;;;;65.68;41.75;;;;;;;;;;5146003;27;20111;-66
2024/03/21 07:03:44;;;;;;;56.60;36.72;;;;;;;;;;5116042;27;20022;-65
2024/03/21 07:06:12;;;;;;;53.72;37.30;;;;;;;;;;5148559;27;20507;-65
2024/03/21 07:08:40;;;;;;;53.78;36.53;;;;;;;;;;5155001;27;20540;-65
2024/03/21 07:11:07;;;;;;;57.05;35.00;;;;;;;;;;5136333;27;20018;-65
2024/03/21 07:13:34;;;;;;;50.65;35.45;;;;;;;;;;5154927;27;20019;-65
2024/03/21 07:16:00;;;;;;;59.63;37.20;;;;;;;;;;5154744;27;20037;-65
2024/03/21 07:18:26;;;;;;;54.03;35.95;;;;;;;;;;5139607;27;20027;-65
2024/03/21 07:20:58;;;;;;;53.80;35.40;;;;;;;;;;5119309;27;20019;-66
2024/03/21 07:23:24;;;;;;;53.05;35.95;;;;;;;;;;5151628;27;20097;-66
2024/03/21 07:25:50;;;;;;;55.00;35.60;;;;;;;;;;5154892;27;20030;-65
2024/03/21 07:28:16;;;;;;;53.20;36.45;;;;;;;;;;5127797;27;20433;-65
2024/03/21 07:30:42;;;;;;;53.70;35.58;;;;;;;;;;5130582;27;20100;-65
2024/03/21 07:33:08;;;;;;;53.42;35.90;;;;;;;;;;5127868;27;20433;-65
2024/03/21 07:35:34;;;;;;;48.38;32.72;;;;;;;;;;5134099;27;20023;-65
2024/03/21 07:38:00;;;;;;;57.28;35.88;;;;;;;;;;5144077;27;20042;-65
2024/03/21 07:40:26;;;;;;;49.70;34.60;;;;;;;;;;5153957;27;20425;-65
2024/03/21 07:42:52;;;;;;;50.83;35.13;;;;;;;;;;5135301;27;20034;-67
2024/03/21 07:45:18;;;;;;;51.10;37.55;;;;;;;;;;5154490;27;20060;-66
2024/03/21 07:47:44;;;;;;;64.07;38.03;;;;;;;;;;5135521;27;20440;-66
2024/03/21 07:50:10;;;;;;;52.55;34.67;;;;;;;;;;5135629;27;20019;-66
2024/03/21 07:52:36;;;;;;;54.58;33.75;;;;;;;;;;5153924;27;20023;-65
2024/03/21 07:55:02;;;;;;;53.53;34.83;;;;;;;;;;5149024;27;20066;-65
2024/03/21 07:57:28;;;;;;;55.47;36.10;;;;;;;;;;5152492;27;20039;-65
2024/03/21 07:59:54;;;;;;;53.22;34.30;;;;;;;;;;5135450;27;20075;-65
2024/03/21 08:02:21;;;;;;;56.60;37.28;;;;;;;;;;5154127;27;20045;-65
2024/03/21 08:04:47;;;;;;;51.08;34.72;;;;;;;;;;5154038;27;20090;-65
2024/03/21 08:07:13;;;;;;;46.50;34.15;;;;;;;;;;5154105;27;20055;-65
2024/03/21 08:09:39;;;;;;;45.65;34.20;;;;;;;;;;5154183;27;20464;-65
2024/03/21 08:12:05;;;;;;;47.80;31.42;;;;;;;;;;5135135;27;20014;-65
2024/03/21 08:14:31;;;;;;;48.83;34.35;;;;;;;;;;5134818;27;20019;-61
2024/03/21 08:16:57;;;;;;;48.25;33.72;;;;;;;;;;5152605;27;20035;-61
2024/03/21 08:19:23;;;;;;;50.30;34.67;;;;;;;;;;5151807;27;20484;-62
2024/03/21 08:21:49;;;;;;;48.90;34.17;;;;;;;;;;5118310;27;20022;-62
2024/03/21 08:24:15;;;;;;;51.50;33.58;;;;;;;;;;5152496;27;20062;-62
2024/03/21 08:26:41;;;;;;;50.05;32.33;;;;;;;;;;5144711;27;20038;-62
2024/03/21 08:29:07;;;;;;;43.45;29.17;;;;;;;;;;5149744;27;20022;-62
2024/03/21 08:31:33;;;;;;;44.78;30.25;;;;;;;;;;5139044;27;20500;-62
2024/03/21 08:33:59;;;;;;;49.53;32.53;;;;;;;;;;5145661;27;20063;-62
2024/03/21 08:36:25;;;;;;;50.92;33.50;;;;;;;;;;5136704;27;20034;-62
2024/03/21 08:38:51;;;;;;;48.80;31.67;;;;;;;;;;5144812;27;20022;-62
2024/03/21 08:41:17;;;;;;;45.60;30.27;;;;;;;;;;5142834;27;20101;-62
2024/03/21 08:43:44;;;;;;;46.28;29.90;;;;;;;;;;5122220;27;20824;-61
2024/03/21 08:46:10;;;;;;;45.72;31.55;;;;;;;;;;5151936;27;20091;-61
2024/03/21 08:51:39;;;;;;;49.28;31.83;;;;;;;;;;5153355;27;20095;-61
2024/03/21 08:54:06;;;;;;;49.72;33.15;;;;;;;;;;5157520;27;20484;-61
2024/03/21 08:56:34;;;;;;;48.25;31.92;;;;;;;;;;5157437;27;20038;-61
2024/03/21 08:59:03;;;;;;;46.47;31.08;;;;;;;;;;5156725;27;20023;-61
2024/03/21 09:01:29;;;;;;;44.53;31.75;;;;;;;;;;5156755;27;20455;-61
2024/03/21 09:03:55;;;;;;;44.97;29.88;;;;;;;;;;5138277;27;20108;-61
2024/03/21 09:06:21;;;;;;;43.75;29.52;;;;;;;;;;5157107;27;20444;-61
2024/03/21 09:08:48;;;;;;;46.10;29.80;;;;;;;;;;5137690;27;20019;-61
2024/03/21 09:11:14;;;;;;;45.92;30.63;;;;;;;;;;5156721;27;20062;-61
2024/03/21 09:13:40;;;;;;;46.65;30.42;;;;;;;;;;5157077;27;20403;-61
2024/03/21 09:16:07;;;;;;;46.40;31.60;;;;;;;;;;5156451;27;20039;-61
2024/03/21 09:18:33;;;;;;;42.75;29.60;;;;;;;;;;5157020;27;20027;-61
2024/03/21 09:21:02;;;;;;;44.35;28.20;;;;;;;;;;5138418;27;20061;-61
2024/03/21 09:23:28;;;;;;;45.30;28.92;;;;;;;;;;5156986;27;20441;-61
2024/03/21 09:26:01;;;;;;;46.75;30.05;;;;;;;;;;5138411;27;20034;-61
2024/03/21 09:28:27;;;;;;;40.90;28.40;;;;;;;;;;5157421;27;20054;-61
2024/03/21 09:30:53;;;;;;;41.80;30.50;;;;;;;;;;5156949;27;20099;-62
2024/03/21 09:33:20;;;;;;;44.10;30.15;;;;;;;;;;5138265;27;20019;-61
2024/03/21 09:35:55;;;;;;;44.58;30.75;;;;;;;;;;5138199;27;20126;-61
2024/03/21 09:38:21;;;;;;;48.65;30.98;;;;;;;;;;5156795;27;20095;-61
2024/03/21 09:40:47;;;;;;;41.85;28.08;;;;;;;;;;5138186;27;20480;-61
2024/03/21 09:43:14;;;;;;;45.85;31.05;;;;;;;;;;5138274;27;20145;-61
2024/03/21 09:45:42;;;;;;;38.00;28.40;;;;;;;;;;5156618;27;20026;-62
2024/03/21 09:48:08;;;;;;;48.17;30.85;;;;;;;;;;5156570;27;20015;-62
2024/03/21 09:50:34;;;;;;;42.33;29.73;;;;;;;;;;5156714;27;20019;-61
2024/03/21 09:53:00;;;;;;;44.22;31.17;;;;;;;;;;5124307;27;20468;-61
2024/03/21 09:55:27;;;;;;;44.97;31.40;;;;;;;;;;5135148;27;20080;-61
2024/03/21 09:57:53;;;;;;;43.85;29.30;;;;;;;;;;5135283;27;20393;-61
2024/03/21 10:00:20;;;;;;;51.83;33.75;;;;;;;;;;5134807;27;20106;-61
2024/03/21 10:02:47;;;;;;;52.92;33.22;;;;;;;;;;5116543;27;20019;-61
2024/03/21 10:08:16;;;;;;;51.25;31.80;;;;;;;;;;5146050;27;20057;-61
2024/03/21 10:10:58;;;;;;;48.10;33.22;;;;;;;;;;5153109;27;20022;-61
2024/03/21 10:13:24;;;;;;;48.15;30.10;;;;;;;;;;5154822;27;20479;-61
2024/03/21 10:15:51;;;;;;;44.88;30.60;;;;;;;;;;5155976;27;20018;-61
2024/03/21 10:18:18;;;;;;;47.47;30.20;;;;;;;;;;5156010;27;20141;-60
2024/03/21 10:20:44;;;;;;;44.63;29.85;;;;;;;;;;5140719;27;20534;-61
2024/03/21 10:23:16;;;;;;;47.08;30.73;;;;;;;;;;5130257;27;20043;-60
2024/03/21 10:25:46;;;;;;;49.53;33.15;;;;;;;;;;5155332;27;20065;-61
2024/03/21 10:28:16;;;;;;;43.45;31.25;;;;;;;;;;5152602;27;20054;-61
2024/03/21 10:30:43;;;;;;;43.17;29.17;;;;;;;;;;5149601;27;20019;-62
2024/03/21 10:33:15;;;;;;;43.85;32.25;;;;;;;;;;5154296;27;20078;-62
2024/03/21 10:35:41;;;;;;;47.60;31.25;;;;;;;;;;5154832;27;20380;-62
2024/03/21 10:38:12;;;;;;;47.33;30.48;;;;;;;;;;5136696;27;20031;-62
2024/03/21 10:40:39;;;;;;;50.55;31.30;;;;;;;;;;5155300;27;20018;-62
2024/03/21 10:43:06;;;;;;;43.17;30.98;;;;;;;;;;5155565;27;20087;-62
2024/03/21 10:45:33;;;;;;;40.42;29.50;;;;;;;;;;5155384;27;20023;-62
2024/03/21 10:47:59;;;;;;;40.67;27.33;;;;;;;;;;5155519;27;20055;-62
2024/03/21 10:50:25;;;;;;;38.17;27.98;;;;;;;;;;5155193;27;20061;-62
2024/03/21 10:52:53;;;;;;;41.83;29.05;;;;;;;;;;5155608;27;20029;-62
2024/03/21 10:55:19;;;;;;;43.03;29.63;;;;;;;;;;5155331;27;20023;-62
2024/03/21 10:57:56;;;;;;;39.95;27.88;;;;;;;;;;5155434;27;20392;-62
2024/03/21 11:00:23;;;;;;;41.53;28.23;;;;;;;;;;5136673;27;20022;-62
2024/03/21 11:02:51;;;;;;;42.92;30.45;;;;;;;;;;5155360;27;20306;-62
2024/03/21 11:05:26;;;;;;;44.72;30.33;;;;;;;;;;5120686;27;20429;-62
2024/03/21 11:07:52;;;;;;;40.47;28.83;;;;;;;;;;5115922;27;20023;-62
2024/03/21 11:10:19;;;;;;;44.30;27.65;;;;;;;;;;5134449;27;20030;-61
2024/03/21 11:12:49;;;;;;;37.78;26.58;;;;;;;;;;5149520;27;20460;-62
2024/03/21 11:15:15;;;;;;;36.53;26.02;;;;;;;;;;5152874;27;20027;-62
2024/03/21 11:17:43;;;;;;;39.65;27.48;;;;;;;;;;5154835;27;20489;-62
2024/03/21 11:20:10;;;;;;;41.10;27.05;;;;;;;;;;5155369;27;20406;-62
2024/03/21 11:22:44;;;;;;;34.55;26.48;;;;;;;;;;5154983;27;20041;-62
2024/03/21 11:25:11;;;;;;;34.00;23.00;;;;;;;;;;5136123;27;20051;-62
2024/03/21 11:27:37;;;;;;;35.42;25.17;;;;;;;;;;5142207;27;20034;-62
2024/03/21 11:30:06;;;;;;;37.30;25.55;;;;;;;;;;5143901;27;20014;-63
2024/03/21 11:32:32;;;;;;;33.00;24.33;;;;;;;;;;5153398;27;20030;-65
2024/03/21 11:34:58;;;;;;;35.75;25.08;;;;;;;;;;5144426;27;20098;-64
2024/03/21 11:37:24;;;;;;;30.65;23.00;;;;;;;;;;5150001;27;20472;-63
2024/03/21 11:39:50;;;;;;;34.63;23.38;;;;;;;;;;5145190;27;20023;-63
2024/03/21 11:42:20;;;;;;;33.65;23.80;;;;;;;;;;5133729;27;20030;-67
2024/03/21 11:44:46;;;;;;;32.85;23.48;;;;;;;;;;5143998;27;20042;-68
2024/03/21 11:47:13;;;;;;;33.22;23.63;;;;;;;;;;5137502;27;20067;-66
2024/03/21 11:49:40;;;;;;;31.77;23.40;;;;;;;;;;5139158;27;20023;-64
2024/03/21 11:52:06;;;;;;;35.97;23.15;;;;;;;;;;5146981;27;20129;-62
2024/03/21 11:54:45;;;;;;;34.03;23.33;;;;;;;;;;5152473;27;20038;-63
2024/03/21 11:57:12;;;;;;;31.35;22.17;;;;;;;;;;5153867;27;20039;-64
2024/03/21 11:59:40;;;;;;;35.08;23.75;;;;;;;;;;5144368;27;20019;-64
2024/03/21 12:02:14;;;;;;;33.13;22.73;;;;;;;;;;5151934;27;20172;-63
2024/03/21 12:04:40;;;;;;;33.67;23.63;;;;;;;;;;5154098;27;20033;-63
2024/03/21 12:07:10;;;;;;;35.08;25.05;;;;;;;;;;5154084;27;20128;-63
2024/03/21 12:09:36;;;;;;;32.00;23.73;;;;;;;;;;5153372;27;20106;-63
2024/03/21 12:12:02;;;;;;;37.05;24.95;;;;;;;;;;5134560;27;20035;-64
2024/03/21 12:14:28;;;;;;;34.47;24.35;;;;;;;;;;5146068;27;20071;-64
2024/03/21 12:16:54;;;;;;;30.95;22.98;;;;;;;;;;5132152;27;20035;-64
2024/03/21 12:19:20;;;;;;;31.67;23.33;;;;;;;;;;5137201;27;20038;-61
2024/03/21 12:21:46;;;;;;;32.90;24.38;;;;;;;;;;5133562;27;20027;-61
2024/03/21 12:24:12;;;;;;;31.23;23.80;;;;;;;;;;5138705;27;20240;-61
2024/03/21 12:26:38;;;;;;;30.90;23.48;;;;;;;;;;5150322;27;20023;-61
2024/03/21 12:29:04;;;;;;;35.10;24.33;;;;;;;;;;5148578;27;20372;-61
2024/03/21 12:31:30;;;;;;;37.47;25.13;;;;;;;;;;5152382;27;20026;-62
2024/03/21 12:33:59;;;;;;;36.03;24.35;;;;;;;;;;5143621;27;20023;-62
2024/03/21 12:36:25;;;;;;;34.03;24.00;;;;;;;;;;5142916;27;20091;-62
2024/03/21 12:38:51;;;;;;;32.70;24.05;;;;;;;;;;5133403;27;20032;-62
2024/03/21 12:41:18;;;;;;;31.60;23.38;;;;;;;;;;5141696;27;20038;-62
2024/03/21 12:43:44;;;;;;;30.25;21.75;;;;;;;;;;5138629;27;20050;-62
2024/03/21 12:46:11;;;;;;;32.03;22.30;;;;;;;;;;5122178;27;20027;-62
2024/03/21 12:48:37;;;;;;;35.10;23.17;;;;;;;;;;5152197;27;20033;-62
2024/03/21 12:51:04;;;;;;;32.05;23.15;;;;;;;;;;5141783;27;20035;-62
2024/03/21 12:53:30;;;;;;;28.02;20.88;;;;;;;;;;5134480;27;20030;-61
2024/03/21 12:55:57;;;;;;;30.95;21.48;;;;;;;;;;5153818;27;20472;-62
2024/03/21 12:58:23;;;;;;;26.67;21.33;;;;;;;;;;5151878;27;20468;-62
2024/03/21 13:00:49;;;;;;;28.90;22.38;;;;;;;;;;5123317;28;20106;-62
2024/03/21 13:03:15;;;;;;;29.63;22.50;;;;;;;;;;5147382;27;20023;-62
2024/03/21 13:05:42;;;;;;;29.63;22.23;;;;;;;;;;5153569;27;20018;-62
2024/03/21 13:08:11;;;;;;;29.08;22.27;;;;;;;;;;5151974;27;20019;-62
2024/03/21 13:10:37;;;;;;;29.80;22.05;;;;;;;;;;5131640;27;20544;-62
2024/03/21 13:13:03;;;;;;;29.13;21.92;;;;;;;;;;5143101;27;20054;-62
2024/03/21 13:15:29;;;;;;;28.45;21.63;;;;;;;;;;5141513;27;20027;-62
2024/03/21 13:17:55;;;;;;;29.23;20.73;;;;;;;;;;5132991;27;20030;-62
2024/03/21 13:20:21;;;;;;;28.33;22.27;;;;;;;;;;5145331;27;20026;-62
2024/03/21 13:22:53;;;;;;;29.90;23.17;;;;;;;;;;5133612;27;20083;-62
2024/03/21 13:25:21;;;;;;;34.58;23.05;;;;;;;;;;5153360;27;20047;-62
2024/03/21 13:27:47;;;;;;;25.25;21.60;;;;;;;;;;5151771;27;20027;-62
2024/03/21 13:30:14;;;;;;;30.75;23.98;;;;;;;;;;5142554;27;20064;-62
2024/03/21 13:32:40;;;;;;;30.02;23.52;;;;;;;;;;5150727;27;20031;-62
2024/03/21 13:35:07;;;;;;;32.38;23.20;;;;;;;;;;5153145;27;20019;-62
2024/03/21 13:37:33;;;;;;;28.00;21.90;;;;;;;;;;5156001;27;20042;-62
2024/03/21 13:39:59;;;;;;;28.70;22.48;;;;;;;;;;5156975;27;20034;-62
2024/03/21 13:42:25;;;;;;;29.70;23.35;;;;;;;;;;5154877;27;20023;-62
2024/03/21 13:45:00;;;;;;;26.73;22.52;;;;;;;;;;5138243;27;20019;-62
2024/03/21 13:47:28;;;;;;;28.65;24.33;;;;;;;;;;5153641;27;20049;-62
2024/03/21 13:49:54;;;;;;;33.15;23.98;;;;;;;;;;5147736;27;20023;-63
2024/03/21 13:52:24;;;;;;;28.95;24.25;;;;;;;;;;5147786;27;20019;-63
2024/03/21 13:54:53;;;;;;;31.77;23.35;;;;;;;;;;5146292;27;20468;-62
2024/03/21 13:57:20;;;;;;;26.98;21.70;;;;;;;;;;5136950;27;20387;-63
2024/03/21 13:59:47;;;;;;;34.25;24.10;;;;;;;;;;5135750;27;20058;-62
2024/03/21 14:02:33;;;;;;;33.78;24.98;;;;;;;;;;5154405;27;20066;-62
2024/03/21 14:04:59;;;;;;;30.42;23.52;;;;;;;;;;5155165;27;20038;-62
2024/03/21 14:07:25;;;;;;;33.42;24.02;;;;;;;;;;5131068;27;20411;-62
2024/03/21 14:09:51;;;;;;;33.75;24.95;;;;;;;;;;5143354;27;20027;-62
2024/03/21 14:12:17;;;;;;;30.10;23.40;;;;;;;;;;5142081;27;20080;-62
2024/03/21 14:14:44;;;;;;;29.48;22.48;;;;;;;;;;5155613;27;20031;-61
2024/03/21 14:17:10;;;;;;;29.85;23.38;;;;;;;;;;5138841;27;20400;-62
2024/03/21 14:19:36;;;;;;;32.60;23.45;;;;;;;;;;5125850;27;20019;-62
2024/03/21 14:22:02;;;;;;;30.55;22.50;;;;;;;;;;5155920;27;20026;-62
2024/03/21 14:24:28;;;;;;;32.17;23.67;;;;;;;;;;5152478;27;20118;-62